createdAt,value
2018-04-06T00:00:58.093Z,99.77
2018-04-06T00:01:58.044Z,99.01
2018-04-06T00:02:58.024Z,98.82
2018-04-06T00:03:58.014Z,98.91
2018-04-06T00:04:58.020Z,98.72
2018-04-06T00:05:58.039Z,98.25
2018-04-06T00:06:58.014Z,98.82
2018-04-06T00:07:58.728Z,97.78
2018-04-06T00:08:58.069Z,97.11
2018-04-06T00:09:58.079Z,97.30
2018-04-06T00:10:58.032Z,96.17
2018-04-06T00:11:58.012Z,95.88
2018-04-06T00:12:58.046Z,95.88
2018-04-06T00:13:58.003Z,96.73
2018-04-06T00:14:57.999Z,95.79
2018-04-06T00:15:58.025Z,96.55
2018-04-06T00:16:58.026Z,95.88
2018-04-06T00:17:58.020Z,95.98
2018-04-06T00:18:58.060Z,95.88
2018-04-06T00:19:58.010Z,95.88
2018-04-06T00:20:58.023Z,95.88
2018-04-06T00:21:58.011Z,96.17
2018-04-06T00:22:58.035Z,95.22
2018-04-06T00:23:58.024Z,95.31
2018-04-06T00:24:58.059Z,96.07
2018-04-06T00:25:57.977Z,95.79
2018-04-06T00:26:57.986Z,95.79
2018-04-06T00:27:57.980Z,95.88
2018-04-06T00:28:58.054Z,95.88
2018-04-06T00:29:57.981Z,95.98
2018-04-06T00:30:58.009Z,95.98
2018-04-06T00:31:57.992Z,95.88
2018-04-06T00:32:58.008Z,95.98
2018-04-06T00:33:58.004Z,95.98
2018-04-06T00:34:57.998Z,96.07
2018-04-06T00:35:57.971Z,96.07
2018-04-06T00:36:57.971Z,95.88
2018-04-06T00:37:58.053Z,96.64
2018-04-06T00:38:57.968Z,96.73
2018-04-06T00:39:57.971Z,95.79
2018-04-06T00:40:58.078Z,96.07
2018-04-06T00:41:58.126Z,96.07
2018-04-06T00:42:57.966Z,95.31
2018-04-06T00:43:57.983Z,95.22
2018-04-06T00:44:57.990Z,95.31
2018-04-06T00:45:57.965Z,95.41
2018-04-06T00:46:57.958Z,95.12
2018-04-06T00:47:57.943Z,95.03
2018-04-06T00:48:57.983Z,94.37
2018-04-06T00:49:57.996Z,94.46
2018-04-06T00:50:57.940Z,94.74
2018-04-06T00:51:57.960Z,94.65
2018-04-06T00:52:57.950Z,94.65
2018-04-06T00:53:57.956Z,95.50
2018-04-06T00:54:57.933Z,95.79
2018-04-06T00:55:57.954Z,96.45
2018-04-06T00:56:57.920Z,97.02
2018-04-06T00:57:57.960Z,97.11
2018-04-06T00:58:57.939Z,96.64
2018-04-06T00:59:57.973Z,95.98
2018-04-06T01:00:57.936Z,95.12
2018-04-06T01:01:57.945Z,95.22
2018-04-06T01:02:57.969Z,94.56
2018-04-06T01:03:57.912Z,94.65
2018-04-06T01:04:57.913Z,94.93
2018-04-06T01:05:57.978Z,95.31
2018-04-06T01:06:57.942Z,95.12
2018-04-06T01:07:57.941Z,95.03
2018-04-06T01:08:57.929Z,95.31
2018-04-06T01:09:57.929Z,95.22
2018-04-06T01:10:57.901Z,95.41
2018-04-06T01:11:57.929Z,95.22
2018-04-06T01:12:58.744Z,95.88
2018-04-06T01:13:57.896Z,96.07
2018-04-06T01:14:57.953Z,95.98
2018-04-06T01:15:57.898Z,95.79
2018-04-06T01:16:57.926Z,95.12
2018-04-06T01:17:57.882Z,95.41
2018-04-06T01:18:57.929Z,95.88
2018-04-06T01:19:57.904Z,95.69
2018-04-06T01:20:57.874Z,95.69
2018-04-06T01:21:57.881Z,94.74
2018-04-06T01:22:57.884Z,94.18
2018-04-06T01:23:57.878Z,94.65
2018-04-06T01:24:57.917Z,94.56
2018-04-06T01:25:58.740Z,94.74
2018-04-06T01:26:57.867Z,94.84
2018-04-06T01:27:57.902Z,94.08
2018-04-06T01:28:57.869Z,93.89
2018-04-06T01:29:57.878Z,93.89
2018-04-06T01:30:57.884Z,94.65
2018-04-06T01:31:57.886Z,94.27
2018-04-06T01:32:57.847Z,94.74
2018-04-06T01:33:57.900Z,94.46
2018-04-06T01:34:57.845Z,94.18
2018-04-06T01:35:57.905Z,94.08
2018-04-06T01:36:57.880Z,94.93
2018-04-06T01:37:57.869Z,94.93
2018-04-06T01:38:57.852Z,95.50
2018-04-06T01:39:57.864Z,95.79
2018-04-06T01:40:57.842Z,95.79
2018-04-06T01:41:57.884Z,96.07
2018-04-06T01:42:57.870Z,95.98
2018-04-06T01:43:57.847Z,96.17
2018-04-06T01:44:57.836Z,95.88
2018-04-06T01:45:57.824Z,96.07
2018-04-06T01:46:57.828Z,96.45
2018-04-06T01:47:57.845Z,97.30
2018-04-06T01:48:57.882Z,97.30
2018-04-06T01:49:57.840Z,97.11
2018-04-06T01:50:57.862Z,96.64
2018-04-06T01:51:57.869Z,96.92
2018-04-06T01:52:57.879Z,96.64
2018-04-06T01:53:57.853Z,96.45
2018-04-06T01:54:57.802Z,95.88
2018-04-06T01:55:57.838Z,95.88
2018-04-06T01:56:57.790Z,95.88
2018-04-06T01:57:57.823Z,96.07
2018-04-06T01:58:57.854Z,95.88
2018-04-06T01:59:57.868Z,95.88
2018-04-06T02:00:57.886Z,95.98
2018-04-06T02:01:57.815Z,96.73
2018-04-06T02:02:57.831Z,96.55
2018-04-06T02:03:57.873Z,96.83
2018-04-06T02:04:57.813Z,96.45
2018-04-06T02:05:57.792Z,96.55
2018-04-06T02:06:57.810Z,96.64
2018-04-06T02:07:57.830Z,96.83
2018-04-06T02:08:57.852Z,96.64
2018-04-06T02:09:57.805Z,96.92
2018-04-06T02:10:57.776Z,96.83
2018-04-06T02:11:57.796Z,96.45
2018-04-06T02:12:57.797Z,96.83
2018-04-06T02:13:57.788Z,95.88
2018-04-06T02:14:57.795Z,95.88
2018-04-06T02:15:57.824Z,95.41
2018-04-06T02:16:57.771Z,95.03
2018-04-06T02:17:57.812Z,96.36
2018-04-06T02:18:57.760Z,96.07
2018-04-06T02:19:57.797Z,96.07
2018-04-06T02:20:57.770Z,96.36
2018-04-06T02:21:57.767Z,97.21
2018-04-06T02:22:57.773Z,97.40
2018-04-06T02:23:57.823Z,97.21
2018-04-06T02:24:57.807Z,97.11
2018-04-06T02:25:57.850Z,97.68
2018-04-06T02:26:57.778Z,97.11
2018-04-06T02:27:57.745Z,97.21
2018-04-06T02:28:57.771Z,97.11
2018-04-06T02:29:57.781Z,97.59
2018-04-06T02:30:57.750Z,97.49
2018-04-06T02:31:57.742Z,98.06
2018-04-06T02:32:57.798Z,98.82
2018-04-06T02:33:57.799Z,98.63
2018-04-06T02:34:57.749Z,98.06
2018-04-06T02:35:57.852Z,98.25
2018-04-06T02:36:57.744Z,98.16
2018-04-06T02:37:57.749Z,97.87
2018-04-06T02:38:57.768Z,97.49
2018-04-06T02:39:57.764Z,97.30
2018-04-06T02:40:57.805Z,97.02
2018-04-06T02:41:58.269Z,96.83
2018-04-06T02:42:57.778Z,96.92
2018-04-06T02:43:57.873Z,96.73
2018-04-06T02:44:57.752Z,96.64
2018-04-06T02:45:57.759Z,96.26
2018-04-06T02:46:57.728Z,96.83
2018-04-06T02:47:57.702Z,96.83
2018-04-06T02:48:57.802Z,96.64
2018-04-06T02:49:57.692Z,96.92
2018-04-06T02:50:57.700Z,96.83
2018-04-06T02:51:57.713Z,97.40
2018-04-06T02:52:57.733Z,97.21
2018-04-06T02:53:57.703Z,97.49
2018-04-06T02:54:57.747Z,98.06
2018-04-06T02:55:57.746Z,97.87
2018-04-06T02:56:57.760Z,98.06
2018-04-06T02:57:57.721Z,97.78
2018-04-06T02:58:57.685Z,98.16
2018-04-06T02:59:57.725Z,97.49
2018-04-06T03:00:57.709Z,97.02
2018-04-06T03:01:57.674Z,97.21
2018-04-06T03:02:57.687Z,97.40
2018-04-06T03:03:57.708Z,97.87
2018-04-06T03:04:57.737Z,98.72
2018-04-06T03:05:57.678Z,97.87
2018-04-06T03:06:57.672Z,97.02
2018-04-06T03:07:57.709Z,97.02
2018-04-06T03:08:57.676Z,97.02
2018-04-06T03:09:57.772Z,96.92
2018-04-06T03:10:57.689Z,96.92
2018-04-06T03:11:57.669Z,97.02
2018-04-06T03:12:57.696Z,96.64
2018-04-06T03:13:57.647Z,95.88
2018-04-06T03:14:57.698Z,95.79
2018-04-06T03:15:57.662Z,95.31
2018-04-06T03:16:57.665Z,95.41
2018-04-06T03:17:57.679Z,94.37
2018-04-06T03:18:57.661Z,94.84
2018-04-06T03:19:57.656Z,94.27
2018-04-06T03:20:57.651Z,94.37
2018-04-06T03:21:57.624Z,94.37
2018-04-06T03:22:58.255Z,94.60
2018-04-06T03:23:57.640Z,95.22
2018-04-06T03:24:57.668Z,95.17
2018-04-06T03:25:57.654Z,94.60
2018-04-06T03:26:57.618Z,94.98
2018-04-06T03:27:57.697Z,95.45
2018-04-06T03:28:57.634Z,96.02
2018-04-06T03:29:57.643Z,95.93
2018-04-06T03:30:57.636Z,95.93
2018-04-06T03:31:57.643Z,95.74
2018-04-06T03:32:57.598Z,96.40
2018-04-06T03:33:57.598Z,95.93
2018-04-06T03:34:57.588Z,96.21
2018-04-06T03:35:57.642Z,96.69
2018-04-06T03:36:57.592Z,96.12
2018-04-06T03:37:57.660Z,95.83
2018-04-06T03:38:57.611Z,95.83
2018-04-06T03:39:57.632Z,95.64
2018-04-06T03:40:57.613Z,95.83
2018-04-06T03:41:57.727Z,96.40
2018-04-06T03:42:57.594Z,96.69
2018-04-06T03:43:57.652Z,96.69
2018-04-06T03:44:57.570Z,96.97
2018-04-06T03:45:57.581Z,96.78
2018-04-06T03:46:57.572Z,97.06
2018-04-06T03:47:57.574Z,96.97
2018-04-06T03:48:57.617Z,96.97
2018-04-06T03:49:57.690Z,96.97
2018-04-06T03:50:57.586Z,97.06
2018-04-06T03:51:57.686Z,97.25
2018-04-06T03:52:57.583Z,97.06
2018-04-06T03:53:57.609Z,96.78
2018-04-06T03:54:57.554Z,96.88
2018-04-06T03:55:57.612Z,96.97
2018-04-06T03:56:57.563Z,96.97
2018-04-06T03:57:57.540Z,97.44
2018-04-06T03:58:57.557Z,97.54
2018-04-06T03:59:57.533Z,97.63
2018-04-06T04:00:57.585Z,97.92
2018-04-06T04:01:57.550Z,98.11
2018-04-06T04:02:57.538Z,97.44
2018-04-06T04:03:57.580Z,97.82
2018-04-06T04:04:57.552Z,98.39
2018-04-06T04:05:57.526Z,98.49
2018-04-06T04:06:57.513Z,98.68
2018-04-06T04:07:57.588Z,98.01
2018-04-06T04:08:57.544Z,97.92
2018-04-06T04:09:57.591Z,97.82
2018-04-06T04:10:57.538Z,97.92
2018-04-06T04:11:57.633Z,97.63
2018-04-06T04:12:57.507Z,97.44
2018-04-06T04:13:57.538Z,98.11
2018-04-06T04:14:57.488Z,97.82
2018-04-06T04:15:57.537Z,97.82
2018-04-06T04:16:57.502Z,97.63
2018-04-06T04:17:57.489Z,97.54
2018-04-06T04:18:57.525Z,97.63
2018-04-06T04:19:57.537Z,96.88
2018-04-06T04:20:57.477Z,97.16
2018-04-06T04:21:57.505Z,97.06
2018-04-06T04:22:57.499Z,96.88
2018-04-06T04:23:57.528Z,96.97
2018-04-06T04:24:57.542Z,97.73
2018-04-06T04:25:57.494Z,97.54
2018-04-06T04:26:57.468Z,97.54
2018-04-06T04:27:57.498Z,97.73
2018-04-06T04:28:57.537Z,96.97
2018-04-06T04:29:57.458Z,97.35
2018-04-06T04:30:57.494Z,97.63
2018-04-06T04:31:57.505Z,98.20
2018-04-06T04:32:57.573Z,97.92
2018-04-06T04:33:57.461Z,97.82
2018-04-06T04:34:57.475Z,97.73
2018-04-06T04:35:57.506Z,98.01
2018-04-06T04:36:57.486Z,98.01
2018-04-06T04:37:57.448Z,98.39
2018-04-06T04:38:57.453Z,98.68
2018-04-06T04:39:57.482Z,98.68
2018-04-06T04:40:57.456Z,97.73
2018-04-06T04:41:57.429Z,98.01
2018-04-06T04:42:57.464Z,97.82
2018-04-06T04:43:57.447Z,97.54
2018-04-06T04:44:57.485Z,97.82
2018-04-06T04:45:57.431Z,97.92
2018-04-06T04:46:57.447Z,97.63
2018-04-06T04:47:57.470Z,97.82
2018-04-06T04:48:57.414Z,98.20
2018-04-06T04:49:57.436Z,98.11
2018-04-06T04:50:57.539Z,97.82
2018-04-06T04:51:57.416Z,97.63
2018-04-06T04:52:57.415Z,98.11
2018-04-06T04:53:57.434Z,98.11
2018-04-06T04:54:57.443Z,98.01
2018-04-06T04:55:57.412Z,97.82
2018-04-06T04:56:57.455Z,97.82
2018-04-06T04:57:57.431Z,98.20
2018-04-06T04:58:57.450Z,98.58
2018-04-06T04:59:57.446Z,98.30
2018-04-06T05:00:57.445Z,98.20
2018-04-06T05:01:57.372Z,98.58
2018-04-06T05:02:57.391Z,98.39
2018-04-06T05:03:57.426Z,98.49
2018-04-06T05:04:57.389Z,98.77
2018-04-06T05:05:57.414Z,98.01
2018-04-06T05:06:57.417Z,97.73
2018-04-06T05:07:57.374Z,97.54
2018-04-06T05:08:57.358Z,98.01
2018-04-06T05:09:57.390Z,98.01
2018-04-06T05:10:57.408Z,98.01
2018-04-06T05:11:57.377Z,97.92
2018-04-06T05:12:57.374Z,97.54
2018-04-06T05:13:57.618Z,97.63
2018-04-06T05:14:57.370Z,97.54
2018-04-06T05:15:57.360Z,97.44
2018-04-06T05:16:57.347Z,98.11
2018-04-06T05:17:57.354Z,98.01
2018-04-06T05:18:57.375Z,97.82
2018-04-06T05:19:57.398Z,97.82
2018-04-06T05:20:57.336Z,98.58
2018-04-06T05:21:57.358Z,98.58
2018-04-06T05:22:57.354Z,98.58
2018-04-06T05:23:57.340Z,98.20
2018-04-06T05:24:57.331Z,98.01
2018-04-06T05:25:57.339Z,97.92
2018-04-06T05:26:57.337Z,98.30
2018-04-06T05:27:57.356Z,98.39
2018-04-06T05:28:57.360Z,98.01
2018-04-06T05:29:57.304Z,97.92
2018-04-06T05:30:57.295Z,98.01
2018-04-06T05:31:57.323Z,97.59
2018-04-06T05:32:57.401Z,95.84
2018-04-06T05:33:57.297Z,94.23
2018-04-06T05:34:57.327Z,91.71
2018-04-06T05:35:57.318Z,90.10
2018-04-06T05:36:57.304Z,87.87
2018-04-06T05:37:57.773Z,85.78
2018-04-06T05:38:57.304Z,84.83
2018-04-06T05:39:57.277Z,83.20
2018-04-06T05:40:57.336Z,81.87
2018-04-06T05:41:57.313Z,81.55
2018-04-06T05:42:57.325Z,81.93
2018-04-06T05:43:57.453Z,81.12
2018-04-06T05:44:57.291Z,78.45
2018-04-06T05:45:57.312Z,79.12
2018-04-06T05:46:57.286Z,79.06
2018-04-06T05:47:57.278Z,78.34
2018-04-06T05:48:57.270Z,76.01
2018-04-06T05:49:57.305Z,74.20
2018-04-06T05:50:57.778Z,72.77
2018-04-06T05:51:57.250Z,72.05
2018-04-06T05:52:57.331Z,70.47
2018-04-06T05:53:57.240Z,70.52
2018-04-06T05:54:57.259Z,69.60
2018-04-06T05:55:57.276Z,68.94
2018-04-06T05:56:57.278Z,68.65
2018-04-06T05:57:57.340Z,68.59
2018-04-06T05:58:57.288Z,70.20
2018-04-06T05:59:57.257Z,70.58
2018-04-06T06:00:57.290Z,71.53
2018-04-06T06:01:57.288Z,71.76
2018-04-06T06:02:57.299Z,70.52
2018-04-06T06:03:57.307Z,69.76
2018-04-06T06:04:57.234Z,68.18
2018-04-06T06:05:57.243Z,68.24
2018-04-06T06:06:57.311Z,68.24
2018-04-06T06:07:57.299Z,68.87
2018-04-06T06:08:57.291Z,71.62
2018-04-06T06:09:57.345Z,75.64
2018-04-06T06:10:57.290Z,76.06
2018-04-06T06:11:57.275Z,75.11
2018-04-06T06:12:57.314Z,72.81
2018-04-06T06:13:57.310Z,69.26
2018-04-06T06:14:57.269Z,66.44
2018-04-06T06:15:57.290Z,64.53
2018-04-06T06:16:57.280Z,63.48
2018-04-06T06:17:57.300Z,63.83
2018-04-06T06:18:57.306Z,64.50
2018-04-06T06:19:57.269Z,64.59
2018-04-06T06:20:57.261Z,63.99
2018-04-06T06:21:57.328Z,62.72
2018-04-06T06:22:57.241Z,63.10
2018-04-06T06:23:57.273Z,64.56
2018-04-06T06:24:57.331Z,66.62
2018-04-06T06:25:57.285Z,66.78
2018-04-06T06:26:57.782Z,65.16
2018-04-06T06:27:57.306Z,64.47
2018-04-06T06:28:57.285Z,65.00
2018-04-06T06:29:57.284Z,63.51
2018-04-06T06:30:57.315Z,66.33
2018-04-06T06:31:57.258Z,67.86
2018-04-06T06:32:57.328Z,65.80
2018-04-06T06:33:57.279Z,65.83
2018-04-06T06:34:57.303Z,64.40
2018-04-06T06:35:57.303Z,64.87
2018-04-06T06:36:57.286Z,65.26
2018-04-06T06:37:57.334Z,63.83
2018-04-06T06:38:57.325Z,65.03
2018-04-06T06:39:57.300Z,63.86
2018-04-06T06:40:57.411Z,62.94
2018-04-06T06:42:02.093Z,60.68
2018-04-06T06:47:02.131Z,60.62
2018-04-06T06:48:02.034Z,61.54
2018-04-06T06:49:02.044Z,59.15
2018-04-06T06:50:02.045Z,56.47
2018-04-06T06:51:02.044Z,55.77
2018-04-06T06:52:02.058Z,56.80
2018-04-06T06:53:02.139Z,57.53
2018-04-06T06:54:02.045Z,58.36
2018-04-06T06:55:02.061Z,57.46
2018-04-06T06:56:02.068Z,58.14
2018-04-06T06:57:02.062Z,58.01
2018-04-06T06:58:02.098Z,58.04
2018-04-06T06:59:02.061Z,58.33
2018-04-06T07:00:02.066Z,57.81
2018-04-06T07:01:02.062Z,57.02
2018-04-06T07:02:02.073Z,56.09
2018-04-06T07:03:03.008Z,55.64
2018-04-06T07:04:02.093Z,53.18
2018-04-06T07:05:02.129Z,54.02
2018-04-06T07:06:02.100Z,54.02
2018-04-06T07:07:02.099Z,55.04
2018-04-06T07:08:02.094Z,55.64
2018-04-06T07:09:02.126Z,54.37
2018-04-06T07:10:02.102Z,54.08
2018-04-06T07:11:02.098Z,55.49
2018-04-06T07:12:02.120Z,55.71
2018-04-06T07:13:02.120Z,54.88
2018-04-06T07:14:02.167Z,52.80
2018-04-06T07:15:02.132Z,52.25
2018-04-06T07:16:02.220Z,52.61
2018-04-06T07:17:02.162Z,53.84
2018-04-06T07:18:02.136Z,55.96
2018-04-06T07:19:03.005Z,55.49
2018-04-06T07:20:02.146Z,55.96
2018-04-06T07:21:02.147Z,56.09
2018-04-06T07:22:02.174Z,54.37
2018-04-06T07:23:02.173Z,55.61
2018-04-06T07:24:02.240Z,55.04
2018-04-06T07:25:02.171Z,54.94
2018-04-06T07:26:02.198Z,54.02
2018-04-06T07:27:03.093Z,53.70
2018-04-06T07:28:02.207Z,54.49
2018-04-06T07:29:02.203Z,53.66
2018-04-06T07:30:02.232Z,52.42
2018-04-06T07:31:02.197Z,51.22
2018-04-06T07:32:02.237Z,50.86
2018-04-06T07:33:02.227Z,51.36
2018-04-06T07:34:02.209Z,51.75
2018-04-06T07:35:02.253Z,50.98
2018-04-06T07:36:03.058Z,52.65
2018-04-06T07:37:02.268Z,53.16
2018-04-06T07:38:02.240Z,54.03
2018-04-06T07:39:02.247Z,54.97
2018-04-06T07:40:02.257Z,54.66
2018-04-06T07:41:02.255Z,56.48
2018-04-06T07:42:02.256Z,58.23
2018-04-06T07:43:02.269Z,56.21
2018-04-06T07:44:02.304Z,52.83
2018-04-06T07:45:02.277Z,50.70
2018-04-06T07:46:02.289Z,50.52
2018-04-06T07:47:02.438Z,49.40
2018-04-06T07:48:02.314Z,49.57
2018-04-06T07:49:02.296Z,49.38
2018-04-06T07:50:02.330Z,49.76
2018-04-06T07:51:02.306Z,50.31
2018-04-06T07:52:02.327Z,50.93
2018-04-06T07:53:02.352Z,53.86
2018-04-06T07:54:02.353Z,53.92
2018-04-06T07:55:02.340Z,52.77
2018-04-06T07:56:02.364Z,51.27
2018-04-06T07:57:02.525Z,51.36
2018-04-06T07:58:02.355Z,51.05
2018-04-06T07:59:02.376Z,51.62
2018-04-06T08:00:02.586Z,50.72
2018-04-06T08:01:02.415Z,50.15
2018-04-06T08:02:02.400Z,49.14
2018-04-06T08:03:02.416Z,47.85
2018-04-06T08:04:02.399Z,49.48
2018-04-06T08:05:02.412Z,50.19
2018-04-06T08:06:02.454Z,50.98
2018-04-06T08:07:02.460Z,50.50
2018-04-06T08:08:02.449Z,50.62
2018-04-06T08:09:02.455Z,49.88
2018-04-06T08:10:02.466Z,49.29
2018-04-06T08:11:02.464Z,49.60
2018-04-06T08:12:02.486Z,47.73
2018-04-06T08:13:03.174Z,47.13
2018-04-06T08:14:03.194Z,46.12
2018-04-06T08:15:02.543Z,45.26
2018-04-06T08:16:02.496Z,44.66
2018-04-06T08:17:02.506Z,44.97
2018-04-06T08:18:02.646Z,44.80
2018-04-06T08:19:02.558Z,43.51
2018-04-06T08:20:02.661Z,45.94
2018-04-06T08:21:02.565Z,48.35
2018-04-06T08:22:02.567Z,48.66
2018-04-06T08:23:02.589Z,47.03
2018-04-06T08:24:02.578Z,46.80
2018-04-06T08:25:02.588Z,47.51
2018-04-06T08:26:02.574Z,47.25
2018-04-06T08:27:02.594Z,46.12
2018-04-06T08:28:02.640Z,44.54
2018-04-06T08:29:02.736Z,43.41
2018-04-06T08:30:02.678Z,45.90
2018-04-06T08:31:02.658Z,46.17
2018-04-06T08:32:02.651Z,46.36
2018-04-06T08:33:03.668Z,45.89
2018-04-06T08:34:02.675Z,46.46
2018-04-06T08:35:02.675Z,46.03
2018-04-06T08:36:02.707Z,44.06
2018-04-06T08:37:02.694Z,44.76
2018-04-06T08:38:03.560Z,45.90
2018-04-06T08:39:02.725Z,45.04
2018-04-06T08:40:02.739Z,45.21
2018-04-06T08:41:02.759Z,45.89
2018-04-06T08:42:02.739Z,45.96
2018-04-06T08:43:02.750Z,46.15
2018-04-06T08:44:03.557Z,46.15
2018-04-06T08:45:02.786Z,46.12
2018-04-06T08:46:02.841Z,45.31
2018-04-06T08:47:02.809Z,45.29
2018-04-06T08:48:03.601Z,44.64
2018-04-06T08:49:02.841Z,43.41
2018-04-06T08:50:02.820Z,42.98
2018-04-06T08:51:02.836Z,40.84
2018-04-06T08:52:03.559Z,41.25
2018-04-06T08:53:02.860Z,40.14
2018-04-06T08:54:02.870Z,39.49
2018-04-06T08:55:02.875Z,38.51
2018-04-06T08:56:02.897Z,40.29
2018-04-06T08:57:02.950Z,41.35
2018-04-06T08:58:02.950Z,41.33
2018-04-06T08:59:02.929Z,41.67
2018-04-06T09:00:02.942Z,40.55
2018-04-06T09:01:02.966Z,38.49
2018-04-06T09:02:03.063Z,38.95
2018-04-06T09:03:02.982Z,39.79
2018-04-06T09:04:02.996Z,40.54
2018-04-06T09:05:03.040Z,41.96
2018-04-06T09:06:03.065Z,42.17
2018-04-06T09:07:03.041Z,42.17
2018-04-06T09:08:03.058Z,40.25
2018-04-06T09:09:03.080Z,41.00
2018-04-06T09:10:03.069Z,42.14
2018-04-06T09:11:03.123Z,41.86
2018-04-06T09:12:03.211Z,41.50
2018-04-06T09:13:03.090Z,41.61
2018-04-06T09:14:03.165Z,39.33
2018-04-06T09:15:04.097Z,39.75
2018-04-06T09:16:03.260Z,40.16
2018-04-06T09:17:03.202Z,39.43
2018-04-06T09:18:03.222Z,37.91
2018-04-06T09:19:03.267Z,36.88
2018-04-06T09:20:03.284Z,36.95
2018-04-06T09:21:03.241Z,38.32
2018-04-06T09:22:03.218Z,38.26
2018-04-06T09:23:03.284Z,38.66
2018-04-06T09:24:03.260Z,39.43
2018-04-06T09:25:03.273Z,38.10
2018-04-06T09:26:03.324Z,37.03
2018-04-06T09:27:03.277Z,38.16
2018-04-06T09:28:03.358Z,38.39
2018-04-06T09:29:03.311Z,37.34
2018-04-06T09:30:03.316Z,36.07
2018-04-06T09:31:03.363Z,37.16
2018-04-06T09:32:03.385Z,38.64
2018-04-06T09:33:03.397Z,37.97
2018-04-06T09:34:03.366Z,37.05
2018-04-06T09:35:03.379Z,36.47
2018-04-06T09:36:03.398Z,34.44
2018-04-06T09:37:03.429Z,34.33
2018-04-06T09:38:03.481Z,35.78
2018-04-06T09:39:03.454Z,35.30
2018-04-06T09:40:03.467Z,35.40
2018-04-06T09:41:03.462Z,34.63
2018-04-06T09:42:03.484Z,35.22
2018-04-06T09:43:03.512Z,34.30
2018-04-06T09:44:04.113Z,32.64
2018-04-06T09:45:03.517Z,32.14
2018-04-06T09:46:03.558Z,32.36
2018-04-06T09:47:03.566Z,30.79
2018-04-06T09:48:03.559Z,32.14
2018-04-06T09:49:03.595Z,32.03
2018-04-06T09:50:03.639Z,31.66
2018-04-06T09:51:03.601Z,32.33
2018-04-06T09:52:03.701Z,31.95
2018-04-06T09:53:03.670Z,32.17
2018-04-06T09:54:03.654Z,32.12
2018-04-06T09:55:03.713Z,32.52
2018-04-06T09:56:03.720Z,31.23
2018-04-06T09:57:03.710Z,29.17
2018-04-06T09:58:03.725Z,28.70
2018-04-06T09:59:03.725Z,28.42
2018-04-06T10:00:03.766Z,28.20
2018-04-06T10:01:03.779Z,28.79
2018-04-06T10:02:03.763Z,28.03
2018-04-06T10:03:03.787Z,27.94
2018-04-06T10:04:03.785Z,27.16
2018-04-06T10:05:03.817Z,28.86
2018-04-06T10:06:03.839Z,29.35
2018-04-06T10:07:04.613Z,29.83
2018-04-06T10:08:03.876Z,29.23
2018-04-06T10:09:03.885Z,30.51
2018-04-06T10:10:03.890Z,30.23
2018-04-06T10:11:03.908Z,30.05
2018-04-06T10:12:03.920Z,29.03
2018-04-06T10:13:03.965Z,27.86
2018-04-06T10:14:03.943Z,28.36
2018-04-06T10:15:03.952Z,27.49
2018-04-06T10:16:04.006Z,27.28
2018-04-06T10:17:04.090Z,27.45
2018-04-06T10:18:06.826Z,28.78
2018-04-06T10:19:04.027Z,30.40
2018-04-06T10:20:04.031Z,31.53
2018-04-06T10:21:04.054Z,32.10
2018-04-06T10:22:04.129Z,31.56
2018-04-06T10:23:04.089Z,29.08
2018-04-06T10:24:04.172Z,28.30
2018-04-06T10:25:04.239Z,29.82
2018-04-06T10:26:04.182Z,30.79
2018-04-06T10:27:04.186Z,30.32
2018-04-06T10:28:04.223Z,30.78
2018-04-06T10:29:04.319Z,30.23
2018-04-06T10:30:04.291Z,32.12
2018-04-06T10:31:04.281Z,33.58
2018-04-06T10:32:05.131Z,33.01
2018-04-06T10:33:04.274Z,32.01
2018-04-06T10:34:04.312Z,29.99
2018-04-06T10:35:04.271Z,31.58
2018-04-06T10:36:04.293Z,33.67
2018-04-06T10:37:04.297Z,34.10
2018-04-06T10:38:04.312Z,34.73
2018-04-06T10:39:04.386Z,33.59
2018-04-06T10:40:04.357Z,32.55
2018-04-06T10:41:04.370Z,32.71
2018-04-06T10:42:04.377Z,33.25
2018-04-06T10:43:04.397Z,33.19
2018-04-06T10:44:04.417Z,33.19
2018-04-06T10:45:04.477Z,33.19
2018-04-06T10:46:04.495Z,32.64
2018-04-06T10:47:04.472Z,31.98
2018-04-06T10:48:04.473Z,30.17
2018-04-06T10:49:04.516Z,28.82
2018-04-06T10:50:04.507Z,29.48
2018-04-06T10:51:04.526Z,30.22
2018-04-06T10:52:04.574Z,31.08
2018-04-06T10:53:04.563Z,31.08
2018-04-06T10:54:04.570Z,32.42
2018-04-06T10:55:04.638Z,33.48
2018-04-06T10:56:04.618Z,34.52
2018-04-06T10:57:04.637Z,34.52
2018-04-06T10:58:04.639Z,34.53
2018-04-06T10:59:04.686Z,33.08
2018-04-06T11:00:04.693Z,34.12
2018-04-06T11:01:04.702Z,35.10
2018-04-06T11:02:04.718Z,34.63
2018-04-06T11:03:04.718Z,34.09
2018-04-06T11:04:04.726Z,33.42
2018-04-06T11:05:04.754Z,34.81
2018-04-06T11:06:04.808Z,36.63
2018-04-06T11:07:04.863Z,37.09
2018-04-06T11:08:04.819Z,38.05
2018-04-06T11:09:04.810Z,38.79
2018-04-06T11:10:04.852Z,38.91
2018-04-06T11:11:04.849Z,39.22
2018-04-06T11:12:04.865Z,38.07
2018-04-06T11:13:04.881Z,37.76
2018-04-06T11:14:04.887Z,37.80
2018-04-06T11:15:04.896Z,37.28
2018-04-06T11:16:04.930Z,37.85
2018-04-06T11:17:04.967Z,36.91
2018-04-06T11:18:04.968Z,35.38
2018-04-06T11:19:05.009Z,35.25
2018-04-06T11:20:05.025Z,37.16
2018-04-06T11:21:04.981Z,37.93
2018-04-06T11:22:05.016Z,37.36
2018-04-06T11:23:05.068Z,38.18
2018-04-06T11:26:05.065Z,40.17
2018-04-06T11:51:40.564Z,42.08
2018-04-06T11:52:41.929Z,42.27
2018-04-06T11:53:41.728Z,41.99
2018-04-06T11:55:56.147Z,41.70
2018-04-06T11:56:40.316Z,42.27
2018-04-06T11:57:40.403Z,42.47
2018-04-06T11:58:40.589Z,43.14
2018-04-06T11:59:40.378Z,42.18
2018-04-06T12:00:40.307Z,42.47
2018-04-06T12:01:40.334Z,42.18
2018-04-06T12:02:40.312Z,42.20
2018-04-06T12:03:40.329Z,42.40
2018-04-06T12:04:40.331Z,42.47
2018-04-06T12:05:40.429Z,42.27
2018-04-06T12:06:40.358Z,43.06
2018-04-06T12:09:44.555Z,41.51
2018-04-06T12:10:14.059Z,41.13
2018-04-06T12:12:06.213Z,41.22
2018-04-06T12:13:06.535Z,40.86
2018-04-06T12:14:06.161Z,40.94
2018-04-06T12:15:06.175Z,41.32
2018-04-06T12:16:06.199Z,41.82
2018-04-06T12:17:06.180Z,42.01
2018-04-06T12:18:06.209Z,40.95
2018-04-06T12:19:06.226Z,40.55
2018-04-06T12:20:06.228Z,41.22
2018-04-06T12:21:06.219Z,41.41
2018-04-06T12:22:06.222Z,40.55
2018-04-06T12:23:06.245Z,40.65
2018-04-06T12:24:06.212Z,40.75
2018-04-06T12:25:06.269Z,40.65
2018-04-06T12:26:06.213Z,40.75
2018-04-06T12:27:06.266Z,40.86
2018-04-06T12:28:06.228Z,40.77
2018-04-06T12:29:06.243Z,39.69
2018-04-06T12:30:06.228Z,40.36
2018-04-06T12:31:06.260Z,40.55
2018-04-06T12:32:06.238Z,39.89
2018-04-06T12:33:06.238Z,40.36
2018-04-06T12:34:06.256Z,39.89
2018-04-06T12:35:06.263Z,39.50
2018-04-06T12:36:06.271Z,38.93
2018-04-06T12:37:06.257Z,39.50
2018-04-06T12:38:06.275Z,38.83
2018-04-06T12:39:06.288Z,38.83
2018-04-06T12:40:06.265Z,38.66
2018-04-06T12:41:06.293Z,38.35
2018-04-06T12:42:06.278Z,39.50
2018-04-06T12:43:06.334Z,38.85
2018-04-06T12:44:06.342Z,38.47
2018-04-06T12:45:07.013Z,38.76
2018-04-06T12:46:06.279Z,38.68
2018-04-06T12:47:06.278Z,38.20
2018-04-06T12:48:06.330Z,37.24
2018-04-06T12:49:06.288Z,37.53
2018-04-06T12:50:06.312Z,36.86
2018-04-06T12:51:06.311Z,37.32
2018-04-06T12:52:06.297Z,37.04
2018-04-06T12:53:06.308Z,37.53
2018-04-06T12:54:06.315Z,37.15
2018-04-06T12:55:06.350Z,36.94
2018-04-06T12:56:06.305Z,36.94
2018-04-06T12:57:06.315Z,35.41
2018-04-06T12:58:06.323Z,34.53
2018-04-06T12:59:06.321Z,34.34
2018-04-06T13:00:06.334Z,34.14
2018-04-06T13:01:06.345Z,34.36
2018-04-06T13:02:06.333Z,34.45
2018-04-06T13:03:06.362Z,34.83
2018-04-06T13:04:06.342Z,34.66
2018-04-06T13:05:06.392Z,33.97
2018-04-06T13:06:06.355Z,34.28
2018-04-06T13:07:06.355Z,34.36
2018-04-06T13:08:06.369Z,34.16
2018-04-06T13:09:06.393Z,33.59
2018-04-06T13:10:07.035Z,33.69
2018-04-06T13:11:06.390Z,33.99
2018-04-06T13:12:06.381Z,33.78
2018-04-06T13:13:06.364Z,34.45
2018-04-06T13:14:07.044Z,34.06
2018-04-06T13:15:06.399Z,34.74
2018-04-06T13:16:06.399Z,34.06
2018-04-06T13:17:06.427Z,34.16
2018-04-06T13:18:06.385Z,33.76
2018-04-06T13:19:06.400Z,34.16
2018-04-06T13:20:06.483Z,34.83
2018-04-06T13:21:07.038Z,34.55
2018-04-06T13:22:06.398Z,34.55
2018-04-06T13:23:06.413Z,34.83
2018-04-06T13:24:06.419Z,34.55
2018-04-06T13:25:06.447Z,34.55
2018-04-06T13:26:06.429Z,34.36
2018-04-06T13:27:06.454Z,34.85